sensor_id;sensor_type;location;lat;lon;timestamp;temperature;humidity
15241;DHT22;7723;52.170;9.978;2023-05-03T00:01:11;3.20;99.90
15241;DHT22;7723;52.170;9.978;2023-05-03T00:03:39;3.20;99.90
15241;DHT22;7723;52.170;9.978;2023-05-03T00:06:10;3.10;99.90
15241;DHT22;7723;52.170;9.978;2023-05-03T00:08:38;3.10;99.90
15241;DHT22;7723;52.170;9.978;2023-05-03T00:11:05;3.10;99.90
15241;DHT22;7723;52.170;9.978;2023-05-03T00:13:33;3.10;99.90
15241;DHT22;7723;52.170;9.978;2023-05-03T00:16:00;3.10;99.90
15241;DHT22;7723;52.170;9.978;2023-05-03T00:18:27;3.10;99.90
15241;DHT22;7723;52.170;9.978;2023-05-03T00:20:55;3.10;99.90
15241;DHT22;7723;52.170;9.978;2023-05-03T00:23:23;3.10;99.90
15241;DHT22;7723;52.170;9.978;2023-05-03T00:25:55;3.10;99.90
15241;DHT22;7723;52.170;9.978;2023-05-03T00:28:23;3.10;99.90
15241;DHT22;7723;52.170;9.978;2023-05-03T00:30:51;3.10;99.90
15241;DHT22;7723;52.170;9.978;2023-05-03T00:33:18;3.00;99.90
15241;DHT22;7723;52.170;9.978;2023-05-03T00:35:46;3.10;99.90
15241;DHT22;7723;52.170;9.978;2023-05-03T00:38:13;3.00;99.90
15241;DHT22;7723;52.170;9.978;2023-05-03T00:40:40;3.00;99.90
15241;DHT22;7723;52.170;9.978;2023-05-03T00:43:11;3.00;99.90
15241;DHT22;7723;52.170;9.978;2023-05-03T00:45:39;3.00;99.90
15241;DHT22;7723;52.170;9.978;2023-05-03T00:48:06;2.90;99.90
15241;DHT22;7723;52.170;9.978;2023-05-03T00:50:35;2.90;99.90
15241;DHT22;7723;52.170;9.978;2023-05-03T00:53:02;2.90;99.90
15241;DHT22;7723;52.170;9.978;2023-05-03T00:55:29;2.80;99.90
15241;DHT22;7723;52.170;9.978;2023-05-03T00:57:57;2.80;99.90
15241;DHT22;7723;52.170;9.978;2023-05-03T01:00:26;2.70;99.90
15241;DHT22;7723;52.170;9.978;2023-05-03T01:02:53;2.70;99.90
15241;DHT22;7723;52.170;9.978;2023-05-03T01:05:21;2.70;99.90
15241;DHT22;7723;52.170;9.978;2023-05-03T01:07:55;2.60;99.90
15241;DHT22;7723;52.170;9.978;2023-05-03T01:10:32;2.70;99.90
15241;DHT22;7723;52.170;9.978;2023-05-03T01:13:08;2.60;99.90
15241;DHT22;7723;52.170;9.978;2023-05-03T01:15:48;2.60;99.90
15241;DHT22;7723;52.170;9.978;2023-05-03T01:18:25;2.50;99.90
15241;DHT22;7723;52.170;9.978;2023-05-03T01:20:58;2.50;99.90
15241;DHT22;7723;52.170;9.978;2023-05-03T01:23:35;2.60;99.90
15241;DHT22;7723;52.170;9.978;2023-05-03T01:26:18;2.60;99.90
15241;DHT22;7723;52.170;9.978;2023-05-03T01:28:45;3.60;99.90
15241;DHT22;7723;52.170;9.978;2023-05-03T01:31:17;2.60;99.90
15241;DHT22;7723;52.170;9.978;2023-05-03T01:33:51;2.60;99.90
15241;DHT22;7723;52.170;9.978;2023-05-03T01:36:24;2.50;99.90
15241;DHT22;7723;52.170;9.978;2023-05-03T01:38:53;2.50;99.90
15241;DHT22;7723;52.170;9.978;2023-05-03T01:41:23;2.50;99.90
15241;DHT22;7723;52.170;9.978;2023-05-03T01:43:53;2.40;99.90
15241;DHT22;7723;52.170;9.978;2023-05-03T01:46:21;2.40;99.90
15241;DHT22;7723;52.170;9.978;2023-05-03T01:48:48;2.40;99.90
15241;DHT22;7723;52.170;9.978;2023-05-03T01:51:15;2.40;99.90
15241;DHT22;7723;52.170;9.978;2023-05-03T01:53:42;2.40;99.90
15241;DHT22;7723;52.170;9.978;2023-05-03T01:56:09;2.30;99.90
15241;DHT22;7723;52.170;9.978;2023-05-03T01:58:37;2.30;99.90
15241;DHT22;7723;52.170;9.978;2023-05-03T02:01:05;2.30;99.90
15241;DHT22;7723;52.170;9.978;2023-05-03T02:03:32;2.30;99.90
15241;DHT22;7723;52.170;9.978;2023-05-03T02:05:59;2.20;99.90
15241;DHT22;7723;52.170;9.978;2023-05-03T02:08:26;2.30;99.90
15241;DHT22;7723;52.170;9.978;2023-05-03T02:10:53;2.20;99.90
15241;DHT22;7723;52.170;9.978;2023-05-03T02:13:20;2.20;99.90
15241;DHT22;7723;52.170;9.978;2023-05-03T02:15:49;2.20;99.90
15241;DHT22;7723;52.170;9.978;2023-05-03T02:18:16;2.20;99.90
15241;DHT22;7723;52.170;9.978;2023-05-03T02:20:45;2.20;99.90
15241;DHT22;7723;52.170;9.978;2023-05-03T02:23:12;2.20;99.90
15241;DHT22;7723;52.170;9.978;2023-05-03T02:25:40;2.10;99.90
15241;DHT22;7723;52.170;9.978;2023-05-03T02:28:07;2.00;99.90
15241;DHT22;7723;52.170;9.978;2023-05-03T02:30:35;1.90;99.90
15241;DHT22;7723;52.170;9.978;2023-05-03T02:33:07;2.00;99.90
15241;DHT22;7723;52.170;9.978;2023-05-03T02:35:34;2.00;99.90
15241;DHT22;7723;52.170;9.978;2023-05-03T02:38:01;2.10;99.90
15241;DHT22;7723;52.170;9.978;2023-05-03T02:40:28;2.10;99.90
15241;DHT22;7723;52.170;9.978;2023-05-03T02:42:55;2.10;99.90
15241;DHT22;7723;52.170;9.978;2023-05-03T02:45:22;2.00;99.90
15241;DHT22;7723;52.170;9.978;2023-05-03T02:47:50;1.90;99.90
15241;DHT22;7723;52.170;9.978;2023-05-03T02:50:18;1.80;99.90
15241;DHT22;7723;52.170;9.978;2023-05-03T02:52:45;1.80;99.90
15241;DHT22;7723;52.170;9.978;2023-05-03T02:55:12;1.80;99.90
15241;DHT22;7723;52.170;9.978;2023-05-03T02:57:39;1.80;99.90
15241;DHT22;7723;52.170;9.978;2023-05-03T03:00:08;1.80;99.90
15241;DHT22;7723;52.170;9.978;2023-05-03T03:02:39;1.80;99.90
15241;DHT22;7723;52.170;9.978;2023-05-03T03:05:07;1.80;99.90
15241;DHT22;7723;52.170;9.978;2023-05-03T03:07:36;1.80;99.90
15241;DHT22;7723;52.170;9.978;2023-05-03T03:10:04;1.90;99.90
15241;DHT22;7723;52.170;9.978;2023-05-03T03:12:32;1.80;99.90
15241;DHT22;7723;52.170;9.978;2023-05-03T03:15:00;1.90;99.90
15241;DHT22;7723;52.170;9.978;2023-05-03T03:17:28;1.90;99.90
15241;DHT22;7723;52.170;9.978;2023-05-03T03:19:55;1.90;99.90
15241;DHT22;7723;52.170;9.978;2023-05-03T03:22:23;1.80;99.90
15241;DHT22;7723;52.170;9.978;2023-05-03T03:24:52;1.80;99.90
15241;DHT22;7723;52.170;9.978;2023-05-03T03:27:19;1.70;99.90
15241;DHT22;7723;52.170;9.978;2023-05-03T03:29:48;1.80;99.90
15241;DHT22;7723;52.170;9.978;2023-05-03T03:32:15;1.80;99.90
15241;DHT22;7723;52.170;9.978;2023-05-03T03:34:42;1.70;99.90
15241;DHT22;7723;52.170;9.978;2023-05-03T03:37:09;1.60;99.90
15241;DHT22;7723;52.170;9.978;2023-05-03T03:39:36;1.60;99.90
15241;DHT22;7723;52.170;9.978;2023-05-03T03:42:06;1.70;99.90
15241;DHT22;7723;52.170;9.978;2023-05-03T03:44:33;1.70;99.90
15241;DHT22;7723;52.170;9.978;2023-05-03T03:47:00;1.70;99.90
15241;DHT22;7723;52.170;9.978;2023-05-03T03:49:27;1.70;99.90
15241;DHT22;7723;52.170;9.978;2023-05-03T03:51:55;1.70;99.90
15241;DHT22;7723;52.170;9.978;2023-05-03T03:54:22;1.70;99.90
15241;DHT22;7723;52.170;9.978;2023-05-03T03:56:49;1.70;99.90
15241;DHT22;7723;52.170;9.978;2023-05-03T03:59:18;1.70;99.90
15241;DHT22;7723;52.170;9.978;2023-05-03T04:01:45;1.80;99.90
15241;DHT22;7723;52.170;9.978;2023-05-03T04:04:12;1.80;99.90
15241;DHT22;7723;52.170;9.978;2023-05-03T04:06:39;1.80;99.90
15241;DHT22;7723;52.170;9.978;2023-05-03T04:09:06;1.80;99.90
15241;DHT22;7723;52.170;9.978;2023-05-03T04:11:35;1.80;99.90
15241;DHT22;7723;52.170;9.978;2023-05-03T04:14:02;1.90;99.90
15241;DHT22;7723;52.170;9.978;2023-05-03T04:16:30;1.90;99.90
15241;DHT22;7723;52.170;9.978;2023-05-03T04:18:59;2.00;99.90
15241;DHT22;7723;52.170;9.978;2023-05-03T04:21:26;2.10;99.90
15241;DHT22;7723;52.170;9.978;2023-05-03T04:23:53;2.10;99.90
15241;DHT22;7723;52.170;9.978;2023-05-03T04:26:21;2.20;99.90
15241;DHT22;7723;52.170;9.978;2023-05-03T04:28:48;2.20;99.90
15241;DHT22;7723;52.170;9.978;2023-05-03T04:31:16;2.30;99.90
15241;DHT22;7723;52.170;9.978;2023-05-03T04:33:45;2.80;99.90
15241;DHT22;7723;52.170;9.978;2023-05-03T04:36:13;3.20;99.90
15241;DHT22;7723;52.170;9.978;2023-05-03T04:38:41;3.90;99.90
15241;DHT22;7723;52.170;9.978;2023-05-03T04:41:08;4.40;99.90
15241;DHT22;7723;52.170;9.978;2023-05-03T04:43:36;4.90;99.90
15241;DHT22;7723;52.170;9.978;2023-05-03T04:46:04;5.20;99.90
15241;DHT22;7723;52.170;9.978;2023-05-03T04:48:31;5.50;99.90
15241;DHT22;7723;52.170;9.978;2023-05-03T04:51:00;5.90;99.90
15241;DHT22;7723;52.170;9.978;2023-05-03T04:53:27;6.60;99.90
15241;DHT22;7723;52.170;9.978;2023-05-03T04:55:54;7.30;99.90
15241;DHT22;7723;52.170;9.978;2023-05-03T04:58:21;7.70;99.90
15241;DHT22;7723;52.170;9.978;2023-05-03T05:00:48;8.10;99.90
15241;DHT22;7723;52.170;9.978;2023-05-03T05:03:15;8.50;99.90
15241;DHT22;7723;52.170;9.978;2023-05-03T05:05:42;8.50;99.90
15241;DHT22;7723;52.170;9.978;2023-05-03T05:08:11;8.80;99.90
15241;DHT22;7723;52.170;9.978;2023-05-03T05:10:40;9.20;99.90
15241;DHT22;7723;52.170;9.978;2023-05-03T05:13:07;9.70;99.90
15241;DHT22;7723;52.170;9.978;2023-05-03T05:15:34;10.30;99.90
15241;DHT22;7723;52.170;9.978;2023-05-03T05:18:02;10.70;99.90
15241;DHT22;7723;52.170;9.978;2023-05-03T05:20:29;10.80;99.90
15241;DHT22;7723;52.170;9.978;2023-05-03T05:22:56;11.20;99.90
15241;DHT22;7723;52.170;9.978;2023-05-03T05:25:25;11.40;95.40
15241;DHT22;7723;52.170;9.978;2023-05-03T05:27:52;11.80;2.50
15241;DHT22;7723;52.170;9.978;2023-05-03T05:30:19;12.20;1.00
15241;DHT22;7723;52.170;9.978;2023-05-03T05:32:47;12.60;1.00
15241;DHT22;7723;52.170;9.978;2023-05-03T05:35:15;12.70;1.00
15241;DHT22;7723;52.170;9.978;2023-05-03T05:37:44;12.80;1.00
15241;DHT22;7723;52.170;9.978;2023-05-03T05:40:11;13.00;1.00
15241;DHT22;7723;52.170;9.978;2023-05-03T05:42:40;13.10;1.00
15241;DHT22;7723;52.170;9.978;2023-05-03T05:45:08;12.70;1.00
15241;DHT22;7723;52.170;9.978;2023-05-03T05:47:35;13.00;1.00
15241;DHT22;7723;52.170;9.978;2023-05-03T05:50:02;13.40;1.00
15241;DHT22;7723;52.170;9.978;2023-05-03T05:52:30;13.60;1.00
15241;DHT22;7723;52.170;9.978;2023-05-03T05:54:57;14.20;1.00
15241;DHT22;7723;52.170;9.978;2023-05-03T05:57:24;14.10;1.00
15241;DHT22;7723;52.170;9.978;2023-05-03T05:59:53;14.50;1.00
15241;DHT22;7723;52.170;9.978;2023-05-03T06:02:20;14.60;1.00
15241;DHT22;7723;52.170;9.978;2023-05-03T06:04:49;14.70;1.00
15241;DHT22;7723;52.170;9.978;2023-05-03T06:07:16;14.80;1.00
15241;DHT22;7723;52.170;9.978;2023-05-03T06:09:43;15.20;1.00
15241;DHT22;7723;52.170;9.978;2023-05-03T06:12:10;15.40;1.00
15241;DHT22;7723;52.170;9.978;2023-05-03T06:14:37;15.00;1.00
15241;DHT22;7723;52.170;9.978;2023-05-03T06:17:06;14.70;1.00
15241;DHT22;7723;52.170;9.978;2023-05-03T06:19:33;15.10;1.00
15241;DHT22;7723;52.170;9.978;2023-05-03T06:22:00;15.60;1.00
15241;DHT22;7723;52.170;9.978;2023-05-03T06:24:27;16.10;1.00
15241;DHT22;7723;52.170;9.978;2023-05-03T06:26:57;16.00;1.00
15241;DHT22;7723;52.170;9.978;2023-05-03T06:29:25;15.90;1.00
15241;DHT22;7723;52.170;9.978;2023-05-03T06:31:52;15.90;1.00
15241;DHT22;7723;52.170;9.978;2023-05-03T06:34:21;15.40;99.90
15241;DHT22;7723;52.170;9.978;2023-05-03T06:36:48;14.50;1.00
15241;DHT22;7723;52.170;9.978;2023-05-03T06:39:16;14.20;1.00
15241;DHT22;7723;52.170;9.978;2023-05-03T06:41:43;15.00;1.00
15241;DHT22;7723;52.170;9.978;2023-05-03T06:44:10;15.90;1.00
15241;DHT22;7723;52.170;9.978;2023-05-03T06:46:37;16.30;1.00
15241;DHT22;7723;52.170;9.978;2023-05-03T06:49:04;16.40;99.90
15241;DHT22;7723;52.170;9.978;2023-05-03T06:51:33;16.00;99.90
15241;DHT22;7723;52.170;9.978;2023-05-03T06:54:01;15.20;1.00
15241;DHT22;7723;52.170;9.978;2023-05-03T06:56:31;15.10;1.00
15241;DHT22;7723;52.170;9.978;2023-05-03T06:58:59;15.00;1.00
15241;DHT22;7723;52.170;9.978;2023-05-03T07:01:26;14.70;1.00
15241;DHT22;7723;52.170;9.978;2023-05-03T07:03:53;14.30;1.00
15241;DHT22;7723;52.170;9.978;2023-05-03T07:06:20;14.20;1.00
15241;DHT22;7723;52.170;9.978;2023-05-03T07:08:50;14.90;1.00
15241;DHT22;7723;52.170;9.978;2023-05-03T07:11:17;15.30;1.00
15241;DHT22;7723;52.170;9.978;2023-05-03T07:13:48;15.80;1.00
15241;DHT22;7723;52.170;9.978;2023-05-03T07:16:15;16.50;99.90
15241;DHT22;7723;52.170;9.978;2023-05-03T07:18:42;16.80;99.90
15241;DHT22;7723;52.170;9.978;2023-05-03T07:21:10;16.10;99.90
15241;DHT22;7723;52.170;9.978;2023-05-03T07:23:37;15.10;1.00
15241;DHT22;7723;52.170;9.978;2023-05-03T07:26:07;15.40;99.90
15241;DHT22;7723;52.170;9.978;2023-05-03T07:28:35;16.10;99.90
15241;DHT22;7723;52.170;9.978;2023-05-03T07:31:03;16.30;99.90
15241;DHT22;7723;52.170;9.978;2023-05-03T07:33:33;16.00;99.90
15241;DHT22;7723;52.170;9.978;2023-05-03T07:36:02;16.50;99.90
15241;DHT22;7723;52.170;9.978;2023-05-03T07:38:29;16.60;99.90
15241;DHT22;7723;52.170;9.978;2023-05-03T07:40:56;17.20;99.90
15241;DHT22;7723;52.170;9.978;2023-05-03T07:43:25;16.90;99.90
15241;DHT22;7723;52.170;9.978;2023-05-03T07:45:52;17.40;99.90
15241;DHT22;7723;52.170;9.978;2023-05-03T07:48:19;17.30;99.90
15241;DHT22;7723;52.170;9.978;2023-05-03T07:50:46;15.20;99.90
15241;DHT22;7723;52.170;9.978;2023-05-03T07:53:13;14.30;99.90
15241;DHT22;7723;52.170;9.978;2023-05-03T07:55:40;14.00;99.90
15241;DHT22;7723;52.170;9.978;2023-05-03T07:58:07;13.80;99.90
15241;DHT22;7723;52.170;9.978;2023-05-03T08:00:37;13.60;99.90
15241;DHT22;7723;52.170;9.978;2023-05-03T08:03:04;13.70;99.90
15241;DHT22;7723;52.170;9.978;2023-05-03T08:05:31;13.20;99.90
15241;DHT22;7723;52.170;9.978;2023-05-03T08:08:00;13.00;1.00
15241;DHT22;7723;52.170;9.978;2023-05-03T08:10:28;12.70;1.00
15241;DHT22;7723;52.170;9.978;2023-05-03T08:12:55;12.50;1.00
15241;DHT22;7723;52.170;9.978;2023-05-03T08:15:22;12.40;1.00
15241;DHT22;7723;52.170;9.978;2023-05-03T08:17:51;12.70;1.00
15241;DHT22;7723;52.170;9.978;2023-05-03T08:20:18;12.10;1.00
15241;DHT22;7723;52.170;9.978;2023-05-03T08:22:46;12.50;1.00
15241;DHT22;7723;52.170;9.978;2023-05-03T08:25:13;12.90;1.00
15241;DHT22;7723;52.170;9.978;2023-05-03T08:27:42;12.30;1.00
15241;DHT22;7723;52.170;9.978;2023-05-03T08:30:09;12.70;1.00
15241;DHT22;7723;52.170;9.978;2023-05-03T08:32:36;12.40;1.00
15241;DHT22;7723;52.170;9.978;2023-05-03T08:35:05;13.10;1.00
15241;DHT22;7723;52.170;9.978;2023-05-03T08:37:37;13.90;1.00
15241;DHT22;7723;52.170;9.978;2023-05-03T08:40:06;15.20;99.90
15241;DHT22;7723;52.170;9.978;2023-05-03T08:42:38;14.90;99.90
15241;DHT22;7723;52.170;9.978;2023-05-03T08:45:09;14.30;99.90
15241;DHT22;7723;52.170;9.978;2023-05-03T08:47:40;14.10;99.90
15241;DHT22;7723;52.170;9.978;2023-05-03T08:50:11;14.20;99.90
15241;DHT22;7723;52.170;9.978;2023-05-03T08:52:39;13.80;99.90
15241;DHT22;7723;52.170;9.978;2023-05-03T08:55:07;13.90;99.90
15241;DHT22;7723;52.170;9.978;2023-05-03T08:57:35;14.60;1.00
15241;DHT22;7723;52.170;9.978;2023-05-03T09:00:03;15.30;99.90
15241;DHT22;7723;52.170;9.978;2023-05-03T09:02:35;15.30;99.90
15241;DHT22;7723;52.170;9.978;2023-05-03T09:05:05;15.90;99.90
15241;DHT22;7723;52.170;9.978;2023-05-03T09:07:33;16.00;99.90
15241;DHT22;7723;52.170;9.978;2023-05-03T09:10:00;15.40;99.90
15241;DHT22;7723;52.170;9.978;2023-05-03T09:12:35;14.60;99.90
15241;DHT22;7723;52.170;9.978;2023-05-03T09:15:03;14.00;99.90
15241;DHT22;7723;52.170;9.978;2023-05-03T09:17:31;13.90;1.00
15241;DHT22;7723;52.170;9.978;2023-05-03T09:19:58;14.50;99.90
15241;DHT22;7723;52.170;9.978;2023-05-03T09:22:27;15.20;99.90
15241;DHT22;7723;52.170;9.978;2023-05-03T09:24:57;16.20;99.90
15241;DHT22;7723;52.170;9.978;2023-05-03T09:27:25;16.50;99.90
15241;DHT22;7723;52.170;9.978;2023-05-03T09:29:53;15.60;99.90
15241;DHT22;7723;52.170;9.978;2023-05-03T09:32:21;15.70;99.90
15241;DHT22;7723;52.170;9.978;2023-05-03T09:34:49;15.10;99.90
15241;DHT22;7723;52.170;9.978;2023-05-03T09:37:16;15.50;99.90
15241;DHT22;7723;52.170;9.978;2023-05-03T09:39:45;15.00;99.90
15241;DHT22;7723;52.170;9.978;2023-05-03T09:42:16;16.20;99.90
15241;DHT22;7723;52.170;9.978;2023-05-03T09:44:45;15.30;99.90
15241;DHT22;7723;52.170;9.978;2023-05-03T09:47:16;15.60;99.90
15241;DHT22;7723;52.170;9.978;2023-05-03T09:49:44;15.60;99.90
15241;DHT22;7723;52.170;9.978;2023-05-03T09:52:11;16.60;99.90
15241;DHT22;7723;52.170;9.978;2023-05-03T09:54:38;16.20;99.90
15241;DHT22;7723;52.170;9.978;2023-05-03T09:57:07;15.80;99.90
15241;DHT22;7723;52.170;9.978;2023-05-03T09:59:37;15.90;99.90
15241;DHT22;7723;52.170;9.978;2023-05-03T10:02:06;16.90;99.90
15241;DHT22;7723;52.170;9.978;2023-05-03T10:04:38;17.10;99.90
15241;DHT22;7723;52.170;9.978;2023-05-03T10:07:10;16.10;99.90
15241;DHT22;7723;52.170;9.978;2023-05-03T10:09:39;15.70;99.90
15241;DHT22;7723;52.170;9.978;2023-05-03T10:12:09;16.20;99.90
15241;DHT22;7723;52.170;9.978;2023-05-03T10:14:39;16.20;99.90
15241;DHT22;7723;52.170;9.978;2023-05-03T10:17:12;16.50;99.90
15241;DHT22;7723;52.170;9.978;2023-05-03T10:19:46;16.30;99.90
15241;DHT22;7723;52.170;9.978;2023-05-03T10:22:16;15.50;99.90
15241;DHT22;7723;52.170;9.978;2023-05-03T10:25:07;16.50;99.90
15241;DHT22;7723;52.170;9.978;2023-05-03T10:27:41;16.00;99.90
15241;DHT22;7723;52.170;9.978;2023-05-03T10:30:26;15.90;99.90
15241;DHT22;7723;52.170;9.978;2023-05-03T10:32:56;15.40;99.90
15241;DHT22;7723;52.170;9.978;2023-05-03T10:35:26;14.60;99.90
15241;DHT22;7723;52.170;9.978;2023-05-03T10:37:54;14.70;99.90
15241;DHT22;7723;52.170;9.978;2023-05-03T10:40:23;14.40;99.90
15241;DHT22;7723;52.170;9.978;2023-05-03T10:43:06;14.00;99.90
15241;DHT22;7723;52.170;9.978;2023-05-03T10:45:35;14.40;99.90
15241;DHT22;7723;52.170;9.978;2023-05-03T10:48:14;14.60;99.90
15241;DHT22;7723;52.170;9.978;2023-05-03T10:50:45;14.20;1.00
15241;DHT22;7723;52.170;9.978;2023-05-03T10:53:35;13.80;99.90
15241;DHT22;7723;52.170;9.978;2023-05-03T10:56:03;13.60;1.00
15241;DHT22;7723;52.170;9.978;2023-05-03T10:58:35;13.50;1.00
15241;DHT22;7723;52.170;9.978;2023-05-03T11:01:05;13.70;1.00
15241;DHT22;7723;52.170;9.978;2023-05-03T11:03:42;13.80;1.00
15241;DHT22;7723;52.170;9.978;2023-05-03T11:06:26;14.00;1.00
15241;DHT22;7723;52.170;9.978;2023-05-03T11:08:53;13.80;1.00
15241;DHT22;7723;52.170;9.978;2023-05-03T11:11:21;14.20;1.00
15241;DHT22;7723;52.170;9.978;2023-05-03T11:13:49;13.50;1.00
15241;DHT22;7723;52.170;9.978;2023-05-03T11:16:18;13.30;1.00
15241;DHT22;7723;52.170;9.978;2023-05-03T11:18:46;13.40;1.00
15241;DHT22;7723;52.170;9.978;2023-05-03T11:21:14;13.30;1.00
15241;DHT22;7723;52.170;9.978;2023-05-03T11:23:42;13.50;1.00
15241;DHT22;7723;52.170;9.978;2023-05-03T11:26:10;13.60;1.00
15241;DHT22;7723;52.170;9.978;2023-05-03T11:28:37;14.10;1.00
15241;DHT22;7723;52.170;9.978;2023-05-03T11:31:05;13.80;1.00
15241;DHT22;7723;52.170;9.978;2023-05-03T11:33:34;14.10;1.00
15241;DHT22;7723;52.170;9.978;2023-05-03T11:36:02;13.50;1.00
15241;DHT22;7723;52.170;9.978;2023-05-03T11:38:30;13.50;1.00
15241;DHT22;7723;52.170;9.978;2023-05-03T11:40:57;14.00;1.00
15241;DHT22;7723;52.170;9.978;2023-05-03T11:43:24;13.90;1.00
15241;DHT22;7723;52.170;9.978;2023-05-03T11:45:54;13.90;1.00
15241;DHT22;7723;52.170;9.978;2023-05-03T11:48:22;13.70;1.00
15241;DHT22;7723;52.170;9.978;2023-05-03T11:50:53;13.80;1.00
15241;DHT22;7723;52.170;9.978;2023-05-03T11:53:21;13.80;1.00
15241;DHT22;7723;52.170;9.978;2023-05-03T11:55:51;13.80;1.00
15241;DHT22;7723;52.170;9.978;2023-05-03T11:58:21;13.80;1.00
15241;DHT22;7723;52.170;9.978;2023-05-03T12:00:50;13.80;1.00
15241;DHT22;7723;52.170;9.978;2023-05-03T12:03:18;13.40;1.00
15241;DHT22;7723;52.170;9.978;2023-05-03T12:05:46;13.40;1.00
15241;DHT22;7723;52.170;9.978;2023-05-03T12:08:14;13.00;1.00
15241;DHT22;7723;52.170;9.978;2023-05-03T12:10:43;13.00;1.00
15241;DHT22;7723;52.170;9.978;2023-05-03T12:13:11;13.10;1.00
15241;DHT22;7723;52.170;9.978;2023-05-03T12:15:38;13.20;1.00
15241;DHT22;7723;52.170;9.978;2023-05-03T12:18:09;13.20;1.00
15241;DHT22;7723;52.170;9.978;2023-05-03T12:20:38;13.30;1.00
15241;DHT22;7723;52.170;9.978;2023-05-03T12:23:08;13.40;1.00
15241;DHT22;7723;52.170;9.978;2023-05-03T12:25:37;13.40;1.00
15241;DHT22;7723;52.170;9.978;2023-05-03T12:28:05;13.30;1.00
15241;DHT22;7723;52.170;9.978;2023-05-03T12:30:33;13.20;1.00
15241;DHT22;7723;52.170;9.978;2023-05-03T12:33:00;13.20;1.00
15241;DHT22;7723;52.170;9.978;2023-05-03T12:35:27;13.30;1.00
15241;DHT22;7723;52.170;9.978;2023-05-03T12:37:54;13.10;1.00
15241;DHT22;7723;52.170;9.978;2023-05-03T12:40:21;13.00;1.00
15241;DHT22;7723;52.170;9.978;2023-05-03T12:42:54;13.30;1.00
15241;DHT22;7723;52.170;9.978;2023-05-03T12:45:22;13.30;1.00
15241;DHT22;7723;52.170;9.978;2023-05-03T12:47:51;13.70;1.00
15241;DHT22;7723;52.170;9.978;2023-05-03T12:50:18;13.90;1.00
15241;DHT22;7723;52.170;9.978;2023-05-03T12:52:46;13.90;1.00
15241;DHT22;7723;52.170;9.978;2023-05-03T12:55:13;13.90;1.00
15241;DHT22;7723;52.170;9.978;2023-05-03T12:57:40;13.60;1.00
15241;DHT22;7723;52.170;9.978;2023-05-03T13:00:09;13.40;1.00
15241;DHT22;7723;52.170;9.978;2023-05-03T13:02:37;13.40;1.00
15241;DHT22;7723;52.170;9.978;2023-05-03T13:05:04;13.30;1.00
15241;DHT22;7723;52.170;9.978;2023-05-03T13:07:31;13.40;1.00
15241;DHT22;7723;52.170;9.978;2023-05-03T13:09:59;13.30;1.00
15241;DHT22;7723;52.170;9.978;2023-05-03T13:12:26;13.30;1.00
15241;DHT22;7723;52.170;9.978;2023-05-03T13:14:55;13.30;1.00
15241;DHT22;7723;52.170;9.978;2023-05-03T13:17:23;13.40;1.00
15241;DHT22;7723;52.170;9.978;2023-05-03T13:19:51;13.40;1.00
15241;DHT22;7723;52.170;9.978;2023-05-03T13:22:18;13.40;1.00
15241;DHT22;7723;52.170;9.978;2023-05-03T13:24:46;13.40;1.00
15241;DHT22;7723;52.170;9.978;2023-05-03T13:27:14;13.40;1.00
15241;DHT22;7723;52.170;9.978;2023-05-03T13:29:42;13.50;1.00
15241;DHT22;7723;52.170;9.978;2023-05-03T13:32:10;13.80;1.00
15241;DHT22;7723;52.170;9.978;2023-05-03T13:34:39;14.00;1.00
15241;DHT22;7723;52.170;9.978;2023-05-03T13:37:06;13.80;1.00
15241;DHT22;7723;52.170;9.978;2023-05-03T13:39:33;13.90;1.00
15241;DHT22;7723;52.170;9.978;2023-05-03T13:42:00;13.90;1.00
15241;DHT22;7723;52.170;9.978;2023-05-03T13:44:28;13.80;1.00
15241;DHT22;7723;52.170;9.978;2023-05-03T13:46:55;13.80;1.00
15241;DHT22;7723;52.170;9.978;2023-05-03T13:49:22;13.80;1.00
15241;DHT22;7723;52.170;9.978;2023-05-03T13:51:51;13.80;1.00
15241;DHT22;7723;52.170;9.978;2023-05-03T13:54:19;14.00;1.00
15241;DHT22;7723;52.170;9.978;2023-05-03T13:56:46;13.90;1.00
15241;DHT22;7723;52.170;9.978;2023-05-03T13:59:13;13.90;1.00
15241;DHT22;7723;52.170;9.978;2023-05-03T14:01:40;13.80;1.00
15241;DHT22;7723;52.170;9.978;2023-05-03T14:04:08;13.70;1.00
15241;DHT22;7723;52.170;9.978;2023-05-03T14:06:35;13.60;1.00
15241;DHT22;7723;52.170;9.978;2023-05-03T14:09:06;13.80;1.00
15241;DHT22;7723;52.170;9.978;2023-05-03T14:11:33;13.70;1.00
15241;DHT22;7723;52.170;9.978;2023-05-03T14:14:00;13.70;1.00
15241;DHT22;7723;52.170;9.978;2023-05-03T14:16:28;13.80;1.00
15241;DHT22;7723;52.170;9.978;2023-05-03T14:18:55;13.80;1.00
15241;DHT22;7723;52.170;9.978;2023-05-03T14:21:22;13.90;1.00
15241;DHT22;7723;52.170;9.978;2023-05-03T14:23:49;14.00;1.00
15241;DHT22;7723;52.170;9.978;2023-05-03T14:26:19;13.90;1.00
15241;DHT22;7723;52.170;9.978;2023-05-03T14:28:46;13.80;1.00
15241;DHT22;7723;52.170;9.978;2023-05-03T14:31:13;13.70;1.00
15241;DHT22;7723;52.170;9.978;2023-05-03T14:33:41;13.70;1.00
15241;DHT22;7723;52.170;9.978;2023-05-03T14:36:08;13.70;1.00
15241;DHT22;7723;52.170;9.978;2023-05-03T14:38:35;13.80;1.00
15241;DHT22;7723;52.170;9.978;2023-05-03T14:41:02;13.80;1.00
15241;DHT22;7723;52.170;9.978;2023-05-03T14:43:31;13.90;1.00
15241;DHT22;7723;52.170;9.978;2023-05-03T14:45:58;14.10;1.00
15241;DHT22;7723;52.170;9.978;2023-05-03T14:48:26;14.10;1.00
15241;DHT22;7723;52.170;9.978;2023-05-03T14:50:53;14.10;1.00
15241;DHT22;7723;52.170;9.978;2023-05-03T14:53:21;14.00;1.00
15241;DHT22;7723;52.170;9.978;2023-05-03T14:55:48;13.90;1.00
15241;DHT22;7723;52.170;9.978;2023-05-03T14:58:16;13.90;1.00
15241;DHT22;7723;52.170;9.978;2023-05-03T15:00:45;13.70;1.00
15241;DHT22;7723;52.170;9.978;2023-05-03T15:03:12;13.80;1.00
15241;DHT22;7723;52.170;9.978;2023-05-03T15:05:43;13.00;1.00
15241;DHT22;7723;52.170;9.978;2023-05-03T15:08:13;13.80;1.00
15241;DHT22;7723;52.170;9.978;2023-05-03T15:10:40;13.80;1.00
15241;DHT22;7723;52.170;9.978;2023-05-03T15:13:09;13.50;1.00
15241;DHT22;7723;52.170;9.978;2023-05-03T15:15:36;13.60;1.00
15241;DHT22;7723;52.170;9.978;2023-05-03T15:18:06;13.60;1.00
15241;DHT22;7723;52.170;9.978;2023-05-03T15:20:33;13.50;1.00
15241;DHT22;7723;52.170;9.978;2023-05-03T15:23:02;13.40;1.00
15241;DHT22;7723;52.170;9.978;2023-05-03T15:25:29;13.40;1.00
15241;DHT22;7723;52.170;9.978;2023-05-03T15:27:56;13.40;1.00
15241;DHT22;7723;52.170;9.978;2023-05-03T15:30:23;13.60;1.00
15241;DHT22;7723;52.170;9.978;2023-05-03T15:32:50;13.70;1.00
15241;DHT22;7723;52.170;9.978;2023-05-03T15:35:19;13.80;1.00
15241;DHT22;7723;52.170;9.978;2023-05-03T15:37:46;13.60;1.00
15241;DHT22;7723;52.170;9.978;2023-05-03T15:40:14;13.60;1.00
15241;DHT22;7723;52.170;9.978;2023-05-03T15:42:41;13.80;1.00
15241;DHT22;7723;52.170;9.978;2023-05-03T15:45:08;13.90;1.00
15241;DHT22;7723;52.170;9.978;2023-05-03T15:47:35;13.80;1.00
15241;DHT22;7723;52.170;9.978;2023-05-03T15:50:03;13.80;1.00
15241;DHT22;7723;52.170;9.978;2023-05-03T15:52:33;13.70;1.00
15241;DHT22;7723;52.170;9.978;2023-05-03T15:55:00;13.50;1.00
15241;DHT22;7723;52.170;9.978;2023-05-03T15:57:27;13.60;1.00
15241;DHT22;7723;52.170;9.978;2023-05-03T15:59:54;13.60;1.00
15241;DHT22;7723;52.170;9.978;2023-05-03T16:02:21;13.60;1.00
15241;DHT22;7723;52.170;9.978;2023-05-03T16:04:49;13.60;1.00
15241;DHT22;7723;52.170;9.978;2023-05-03T16:07:16;13.70;1.00